YBCS Airport Information

Runway Information
Runway 12 Length 3035 ft width 60 ft
Elevation 9 ft Threshold 0 ft Heading 126
Runway 30 Length 3035 ft Width 60 ft
Elevation 6 ft Threshold 0 ft Heading 306
Runway 15 Length 10489 ft width 148 ft
Elevation 9 ft Threshold 0 ft Heading 156
Runway 33 Length 10489 ft Width 148 ft
Elevation 7 ft Threshold 0 ft Heading 336
Airport Frequencies
Type A/D Name APP/DEP Frequency 118.4 MHZ
Type ATIS Name ATIS Frequency 113 MHZ
Type CLD Name CLNC DEL Frequency 121.7 MHZ
Type GND Name GND Frequency 121.7 MHZ
Type TWR Name TWR Frequency 124.9 MHZ
Airport Navaids
Type VOR-DME Name Cairns Frequency 113000 KHZ
Type NDB Name Cairns Frequency 364 KHZ
Airport Weather Information & NOTAM
ADDS - METARS form results

(0459 UTC 07 March 2021)
Data provider http://aviationweather.gov/metar/data/
 
METAR text: YBCS 070430Z AUTO 04007KT 9999 // SCT020 30/24 Q1009
Conditions at: YBCS (CAIRNS AIRPORT , AU) observed 0430 UTC 07 March 2021
Temperature: 30.0°C (86°F)
Dewpoint: 24.0°C (75°F) [RH = 70%]
Pressure (altimeter): 29.79 inches Hg (1009.0 mb)
Winds: from the NE (40 degrees) at 8 MPH (7 knots; 3.6 m/s)
Visibility: 6 or more miles (10+ km)
Ceiling: at least 12,000 feet AGL
Clouds: scattered clouds at 2000 feet AGL
Weather: no significant weather observed at this time

METAR text: YBCS 070400Z AUTO 05008KT 9999 // SCT020 30/24 Q1009
Conditions at: YBCS (CAIRNS AIRPORT , AU) observed 0400 UTC 07 March 2021
Temperature: 30.0°C (86°F)
Dewpoint: 24.0°C (75°F) [RH = 70%]
Pressure (altimeter): 29.79 inches Hg (1009.0 mb)
Winds: from the NE (50 degrees) at 9 MPH (8 knots; 4.1 m/s)
Visibility: 6 or more miles (10+ km)
Ceiling: at least 12,000 feet AGL
Clouds: scattered clouds at 2000 feet AGL
Weather: no significant weather observed at this time

Forecast for: AMD
Text: TAF AMD YBCS 070229Z 0703/0800 07008KT 9999 -SHRA FEW020 SCT030
Forecast period: 0300 to 1200 UTC 07 March 2021
Forecast type: FROM: standard forecast or significant change
Winds: from the ENE (70 degrees) at 9 MPH (8 knots; 4.1 m/s)
Visibility: 6 or more miles (10+ km)
Ceiling: at least 12,000 feet AGL
Clouds: few clouds at 2000 feet AGL
scattered clouds at 3000 feet AGL
Weather: -SHRA  (light rain showers)
Text: FM071200 12008KT 9999 -SHRA SCT030
Forecast period: 1200 UTC 07 March 2021 to 0000 UTC 08 March 2021
Forecast type: FROM: standard forecast or significant change
Winds: from the ESE (120 degrees) at 9 MPH (8 knots; 4.1 m/s)
Visibility: 6 or more miles (10+ km)
Ceiling: at least 12,000 feet AGL
Clouds: scattered clouds at 3000 feet AGL
Weather: -SHRA  (light rain showers)